Time;durP1;ratioP1;P1;durP2;ratioP2;P2;SDS_P1;SDS_P2;PMS_P1;PMS_P2;Temp;Humidity;BMP_temperature;BMP_pressure;BME280_temperature;BME280_humidity;BME280_pressure;Samples;Min_cycle;Max_cycle;Signal;HPM_P1;HPM_P2
2022/03/09 00:03:48;;;;;;;17.43;12.90;;;;;;;5.56;36.94;98586.06;8317833;28;20236;-67
2022/03/09 00:07:53;;;;;;;15.73;11.87;;;;;;;5.49;36.83;98585.31;8308170;28;20252;-67
2022/03/09 00:11:58;;;;;;;14.83;11.37;;;;;;;5.71;39.99;98593.56;8321995;28;20335;-66
2022/03/09 00:16:01;;;;;;;15.93;12.27;;;;;;;5.62;36.51;98597.13;8316086;28;20224;-66
2022/03/09 00:20:07;;;;;;;18.20;12.77;;;;;;;5.33;37.09;98597.53;8315887;28;20240;-66
2022/03/09 00:24:11;;;;;;;18.93;13.40;;;;;;;5.36;37.41;98602.59;8315405;28;20562;-66
2022/03/09 00:28:14;;;;;;;16.50;13.20;;;;;;;5.36;37.34;98605.19;8340590;28;20244;-66
2022/03/09 00:32:17;;;;;;;18.70;12.80;;;;;;;5.33;36.95;98601.81;8348061;28;20433;-66
2022/03/09 00:36:20;;;;;;;17.33;12.33;;;;;;;5.31;37.16;98599.25;8347989;28;20239;-66
2022/03/09 00:40:25;;;;;;;16.60;12.23;;;;;;;5.22;37.25;98597.66;8347824;28;20437;-66
2022/03/09 00:44:28;;;;;;;17.63;11.40;;;;;;;5.23;37.13;98590.78;8347882;28;20421;-66
2022/03/09 00:48:31;;;;;;;14.30;12.00;;;;;;;4.93;37.56;98592.91;8347110;28;20459;-68
2022/03/09 00:52:34;;;;;;;17.00;11.87;;;;;;;5.01;37.28;98601.34;8347787;28;20530;-66
2022/03/09 00:56:39;;;;;;;15.87;11.70;;;;;;;5.06;37.14;98596.13;8347632;28;20232;-67
2022/03/09 01:00:42;;;;;;;16.40;12.03;;;;;;;4.94;37.78;98589.44;8347476;28;20452;-67
2022/03/09 01:04:45;;;;;;;16.53;11.93;;;;;;;5.01;37.67;98593.66;8339144;28;20251;-67
2022/03/09 01:08:48;;;;;;;17.30;12.83;;;;;;;5.04;37.89;98587.59;8347258;28;20523;-67
2022/03/09 01:12:52;;;;;;;16.77;12.97;;;;;;;5.10;37.78;98590.09;8347287;28;20309;-67
2022/03/09 01:16:55;;;;;;;16.73;12.07;;;;;;;5.03;37.74;98585.94;8347394;28;20235;-67
2022/03/09 01:20:58;;;;;;;20.00;13.20;;;;;;;4.89;37.96;98586.06;8347113;28;20232;-67
2022/03/09 01:25:01;;;;;;;16.73;12.23;;;;;;;4.84;38.62;98596.41;8347437;28;20233;-67
2022/03/09 01:29:06;;;;;;;17.90;12.83;;;;;;;4.87;37.97;98591.25;8347432;28;20256;-66
2022/03/09 01:33:09;;;;;;;15.80;11.50;;;;;;;4.80;38.28;98592.16;8346964;28;20287;-66
2022/03/09 01:37:13;;;;;;;18.83;12.10;;;;;;;4.84;38.97;98585.28;8350566;28;20578;-65
2022/03/09 01:41:16;;;;;;;17.73;12.10;;;;;;;4.73;38.81;98584.56;8353563;28;20240;-67
2022/03/09 01:45:20;;;;;;;17.73;12.07;;;;;;;4.80;38.91;98586.19;8354649;28;20538;-67
2022/03/09 01:49:25;;;;;;;13.73;11.50;;;;;;;4.84;38.71;98580.16;8354839;28;20239;-66
2022/03/09 01:53:29;;;;;;;15.43;11.03;;;;;;;4.60;38.73;98573.56;8354759;28;20206;-66
2022/03/09 01:57:32;;;;;;;14.67;10.87;;;;;;;4.80;38.73;98575.94;8355079;28;20224;-66
2022/03/09 02:01:37;;;;;;;17.73;11.13;;;;;;;4.62;38.92;98574.41;8353715;28;20236;-66
2022/03/09 02:05:40;;;;;;;15.00;11.10;;;;;;;4.64;38.34;98575.22;8352390;28;20605;-66
2022/03/09 02:09:44;;;;;;;12.33;10.50;;;;;;;4.35;38.86;98575.53;8352319;28;20243;-66
2022/03/09 02:13:48;;;;;;;16.27;11.10;;;;;;;4.45;38.81;98574.56;8352196;28;20228;-66
2022/03/09 02:17:52;;;;;;;17.80;11.33;;;;;;;4.51;38.69;98574.50;8351912;28;20259;-66
2022/03/09 02:21:57;;;;;;;16.03;10.73;;;;;;;4.44;39.23;98567.75;8351816;28;20232;-66
2022/03/09 02:26:01;;;;;;;12.17;9.77;;;;;;;4.37;38.94;98574.66;8351650;28;20232;-66
2022/03/09 02:30:06;;;;;;;11.50;9.40;;;;;;;4.48;38.57;98577.13;8351553;28;20251;-66
2022/03/09 02:34:08;;;;;;;12.63;9.50;;;;;;;4.40;38.83;98564.38;8351694;28;20296;-66
2022/03/09 02:38:12;;;;;;;10.63;8.90;;;;;;;4.19;38.60;98575.69;8351525;28;20581;-66
2022/03/09 02:42:16;;;;;;;12.63;9.70;;;;;;;4.27;38.73;98571.31;8351315;28;20319;-66
2022/03/09 02:46:19;;;;;;;14.70;10.60;;;;;;;4.37;38.94;98584.91;8350908;28;20546;-66
2022/03/09 02:50:22;;;;;;;13.00;9.67;;;;;;;4.36;39.02;98588.34;8351067;28;20240;-66
2022/03/09 02:54:25;;;;;;;13.60;10.50;;;;;;;4.32;39.06;98591.78;8351069;28;20273;-66
2022/03/09 02:58:29;;;;;;;13.07;10.50;;;;;;;4.29;39.00;98592.66;8350717;28;20239;-66
2022/03/09 03:02:32;;;;;;;15.90;10.53;;;;;;;4.27;39.38;98607.22;8350427;28;20232;-67
2022/03/09 03:06:35;;;;;;;14.47;10.77;;;;;;;4.20;39.23;98610.69;8350470;28;20238;-66
2022/03/09 03:10:38;;;;;;;16.77;11.13;;;;;;;4.17;39.00;98612.44;8350401;28;20418;-66
2022/03/09 03:14:42;;;;;;;12.13;10.23;;;;;;;4.05;38.88;98626.19;8350288;28;20232;-66
2022/03/09 03:18:45;;;;;;;12.50;10.40;;;;;;;4.24;38.75;98612.38;8350348;28;20417;-66
2022/03/09 03:22:48;;;;;;;15.17;10.47;;;;;;;4.22;39.16;98620.94;8349959;28;20239;-66
2022/03/09 03:26:51;;;;;;;14.37;10.60;;;;;;;4.19;39.32;98610.69;8350009;28;20429;-66
2022/03/09 03:30:56;;;;;;;15.23;10.20;;;;;;;4.08;39.86;98614.22;8349855;28;20239;-66
2022/03/09 03:34:58;;;;;;;14.57;9.97;;;;;;;3.98;39.91;98606.59;8349741;28;20232;-66
2022/03/09 03:39:01;;;;;;;12.93;10.40;;;;;;;4.08;39.63;98609.09;8349564;28;20236;-66
2022/03/09 03:43:05;;;;;;;15.10;10.93;;;;;;;3.94;40.11;98600.69;8349569;28;20228;-66
2022/03/09 03:47:09;;;;;;;12.13;10.30;;;;;;;3.91;39.64;98598.13;8349522;28;20251;-66
2022/03/09 03:51:12;;;;;;;14.57;10.33;;;;;;;3.90;39.69;98597.28;8349059;28;20231;-66
2022/03/09 03:55:15;;;;;;;13.67;10.80;;;;;;;3.89;39.53;98603.25;8349166;28;20558;-66
2022/03/09 03:59:19;;;;;;;12.50;10.23;;;;;;;3.90;39.67;98609.22;8348229;28;20239;-66
2022/03/09 04:03:23;;;;;;;15.80;9.73;;;;;;;3.72;39.83;98617.91;8348749;28;20439;-66
2022/03/09 04:07:26;;;;;;;13.37;9.70;;;;;;;3.80;39.94;98616.13;8348588;28;20290;-66
2022/03/09 04:11:29;;;;;;;13.23;10.70;;;;;;;3.69;39.95;98613.66;8348464;28;20236;-66
2022/03/09 04:15:32;;;;;;;14.73;10.73;;;;;;;3.61;40.30;98624.78;8340155;28;20271;-66
2022/03/09 04:19:40;;;;;;;13.07;10.30;;;;;;;3.69;40.49;98625.59;8348428;28;20436;-66
2022/03/09 04:23:43;;;;;;;13.50;10.77;;;;;;;3.68;40.51;98618.78;8348010;28;20240;-66
2022/03/09 04:27:46;;;;;;;12.87;10.23;;;;;;;3.77;40.53;98628.09;8348168;28;20232;-66
2022/03/09 04:31:49;;;;;;;14.50;11.50;;;;;;;3.64;40.76;98624.78;8348211;28;20236;-66
2022/03/09 04:35:54;;;;;;;17.67;10.70;;;;;;;3.71;40.78;98622.19;8348131;28;20229;-66
2022/03/09 04:39:58;;;;;;;19.07;10.90;;;;;;;3.65;40.79;98626.47;8348142;28;20541;-66
2022/03/09 04:44:00;;;;;;;14.47;10.57;;;;;;;3.72;40.91;98628.97;8347957;28;20569;-66
2022/03/09 04:48:04;;;;;;;14.23;10.73;;;;;;;3.58;40.65;98627.34;8348097;28;20335;-66
2022/03/09 04:52:09;;;;;;;13.80;10.20;;;;;;;3.61;40.36;98632.47;8348074;28;20244;-66
2022/03/09 04:56:12;;;;;;;11.73;10.27;;;;;;;3.64;40.74;98637.59;8348097;28;20230;-66
2022/03/09 05:00:15;;;;;;;13.00;10.63;;;;;;;3.60;41.00;98647.00;8347785;28;20240;-65
2022/03/09 05:04:18;;;;;;;13.67;10.80;;;;;;;3.42;41.13;98652.22;8348149;28;20240;-66
2022/03/09 05:08:23;;;;;;;15.30;10.27;;;;;;;3.47;40.78;98655.59;8347650;28;20572;-66
2022/03/09 05:12:26;;;;;;;13.43;10.07;;;;;;;3.45;40.71;98665.84;8353472;28;20239;-66
2022/03/09 05:16:28;;;;;;;12.83;11.00;;;;;;;3.29;40.63;98677.00;8353738;28;20232;-66
2022/03/09 05:20:32;;;;;;;14.13;10.53;;;;;;;3.31;40.85;98676.16;8353276;28;20234;-66
2022/03/09 05:24:36;;;;;;;15.00;10.47;;;;;;;3.43;40.73;98670.13;8353677;28;20262;-65
2022/03/09 05:28:39;;;;;;;13.13;10.93;;;;;;;3.40;40.70;98679.53;8353571;28;20236;-66
2022/03/09 05:32:43;;;;;;;19.60;12.87;;;;;;;3.29;40.70;98690.69;8353407;28;20247;-65
2022/03/09 05:36:46;;;;;;;15.10;11.93;;;;;;;3.38;40.91;98694.91;8353371;28;20255;-66
2022/03/09 05:40:50;;;;;;;15.30;11.60;;;;;;;3.43;40.91;98690.63;8353315;28;20244;-66
2022/03/09 05:44:53;;;;;;;16.00;10.77;;;;;;;3.35;40.99;98696.63;8353292;28;20234;-66
2022/03/09 05:49:17;;;;;;;13.87;11.10;;;;;;;3.45;40.73;98705.97;8353121;28;20247;-65
2022/03/09 05:53:19;;;;;;;14.80;11.10;;;;;;;3.39;40.88;98696.63;8352728;28;20236;-65
2022/03/09 05:57:24;;;;;;;17.40;11.80;;;;;;;3.43;40.85;98710.25;8352294;28;20224;-66
2022/03/09 06:01:27;;;;;;;14.57;10.93;;;;;;;3.44;40.49;98709.38;8351425;28;20550;-66
2022/03/09 06:05:30;;;;;;;14.03;10.60;;;;;;;3.62;40.10;98709.31;8351573;28;20514;-66
2022/03/09 06:09:33;;;;;;;14.07;11.10;;;;;;;3.87;39.76;98698.94;8342944;28;20224;-66
2022/03/09 06:13:38;;;;;;;16.73;11.87;;;;;;;4.49;38.87;98694.22;8351958;28;20531;-65
2022/03/09 06:17:44;;;;;;;17.60;12.30;;;;;;;4.76;38.42;98690.59;8351686;28;20236;-66
2022/03/09 06:21:47;;;;;;;18.47;11.73;;;;;;;5.04;37.83;98691.13;8350351;28;20236;-66
2022/03/09 06:25:50;;;;;;;16.03;11.47;;;;;;;5.60;37.45;98698.25;8352108;28;20448;-66
2022/03/09 06:29:57;;;;;;;14.53;11.77;;;;;;;5.91;36.68;98700.41;8351679;28;20499;-66
2022/03/09 06:34:00;;;;;;;16.37;12.50;;;;;;;6.03;36.26;98703.66;8351499;28;20232;-65
2022/03/09 06:38:03;;;;;;;16.70;12.13;;;;;;;5.99;36.21;98698.59;8351012;28;20243;-66
2022/03/09 06:42:07;;;;;;;18.07;11.83;;;;;;;6.43;35.88;98687.63;8351440;28;20232;-66
2022/03/09 06:46:11;;;;;;;19.10;12.23;;;;;;;6.40;36.00;98687.69;8351097;28;20235;-66
2022/03/09 06:50:15;;;;;;;22.63;13.70;;;;;;;6.65;35.80;98692.44;8350746;28;20423;-66
2022/03/09 06:54:18;;;;;;;17.77;12.60;;;;;;;6.52;35.78;98696.09;8350752;28;20232;-66
2022/03/09 06:58:21;;;;;;;20.13;13.20;;;;;;;6.70;35.59;98705.22;8350814;28;20235;-66
2022/03/09 07:02:25;;;;;;;18.27;13.47;;;;;;;7.42;34.61;98711.63;8350599;28;20239;-66
2022/03/09 07:06:31;;;;;;;20.87;13.00;;;;;;;7.62;34.26;98716.41;8350618;28;20228;-66
2022/03/09 07:10:36;;;;;;;15.27;12.20;;;;;;;7.41;34.42;98722.81;8349957;28;20235;-67
2022/03/09 07:14:39;;;;;;;21.00;14.27;;;;;;;7.71;33.96;98731.69;8350438;28;20238;-66
2022/03/09 07:18:43;;;;;;;29.60;14.60;;;;;;;7.86;33.84;98740.81;8349869;28;20239;-67
2022/03/09 07:22:47;;;;;;;24.00;13.87;;;;;;;7.61;34.56;98730.16;8349793;28;20240;-66
2022/03/09 07:26:50;;;;;;;19.77;12.83;;;;;;;7.41;34.42;98735.72;8349965;28;20538;-66
2022/03/09 07:30:53;;;;;;;18.37;11.77;;;;;;;7.71;34.44;98739.41;8349830;28;20423;-67
2022/03/09 07:34:57;;;;;;;19.30;11.63;;;;;;;7.80;34.35;98749.50;8349679;28;20224;-66
2022/03/09 07:39:00;;;;;;;14.40;10.60;;;;;;;8.50;34.07;98742.88;8349254;28;20228;-66
2022/03/09 07:43:15;;;;;;;18.63;11.23;;;;;;;8.93;32.63;98746.97;8349489;28;20286;-66
2022/03/09 07:47:21;;;;;;;19.23;11.20;;;;;;;9.43;32.61;98747.41;8349802;28;20239;-66
2022/03/09 07:51:25;;;;;;;16.10;10.20;;;;;;;9.50;31.53;98754.13;8348867;28;20247;-66
2022/03/09 07:55:28;;;;;;;12.87;10.70;;;;;;;9.73;31.12;98750.03;8348879;28;20409;-66
2022/03/09 07:59:32;;;;;;;15.50;10.47;;;;;;;9.73;30.29;98757.81;8340299;28;20299;-67
2022/03/09 08:03:34;;;;;;;15.23;10.30;;;;;;;10.23;29.97;98757.22;8348753;28;20543;-67
2022/03/09 08:07:42;;;;;;;13.03;10.03;;;;;;;9.54;30.80;98760.91;8348637;28;20235;-67
2022/03/09 08:11:46;;;;;;;21.23;11.87;;;;;;;10.69;29.82;98763.56;8348814;28;20423;-66
2022/03/09 08:15:49;;;;;;;16.20;10.60;;;;;;;10.83;29.56;98758.78;8348261;28;20232;-66
2022/03/09 08:19:52;;;;;;;13.40;10.40;;;;;;;11.03;28.93;98746.94;8348386;28;20287;-66
2022/03/09 08:23:57;;;;;;;16.13;10.20;;;;;;;11.38;27.79;98744.84;8347946;28;20248;-66
2022/03/09 08:28:01;;;;;;;13.10;10.20;;;;;;;11.22;28.05;98753.16;8348020;28;20228;-67
2022/03/09 08:32:05;;;;;;;12.47;10.33;;;;;;;10.79;28.46;98745.97;8347777;28;20231;-67
2022/03/09 08:36:08;;;;;;;12.17;10.20;;;;;;;10.75;28.82;98745.22;8347828;28;20228;-66
2022/03/09 08:40:13;;;;;;;16.10;10.50;;;;;;;11.72;27.99;98747.91;8347677;28;20420;-66
2022/03/09 08:44:16;;;;;;;13.37;10.00;;;;;;;12.44;26.74;98741.78;8347414;28;20239;-66
2022/03/09 08:48:19;;;;;;;12.73;9.27;;;;;;;12.37;26.94;98742.91;8347701;28;20236;-66
2022/03/09 08:52:22;;;;;;;15.07;10.57;;;;;;;12.28;26.37;98732.88;8347724;28;20561;-67
2022/03/09 08:56:28;;;;;;;14.70;10.40;;;;;;;12.04;26.75;98745.09;8347411;28;20232;-67
2022/03/09 09:00:32;;;;;;;17.50;10.17;;;;;;;12.82;26.76;98741.16;8347000;28;20230;-67
2022/03/09 09:04:35;;;;;;;13.13;9.90;;;;;;;10.91;28.34;98741.25;8347520;28;20298;-67
2022/03/09 09:08:38;;;;;;;15.70;9.80;;;;;;;13.11;26.41;98735.56;8347691;28;20236;-67
2022/03/09 09:12:46;;;;;;;15.47;10.00;;;;;;;12.10;26.12;98747.44;8347494;28;20235;-67
2022/03/09 09:16:49;;;;;;;10.83;9.00;;;;;;;13.41;25.55;98734.34;8347166;28;20231;-67
2022/03/09 09:20:53;;;;;;;12.47;8.83;;;;;;;13.20;25.21;98734.34;8347455;28;20238;-67
2022/03/09 09:24:56;;;;;;;13.73;9.40;;;;;;;13.43;24.57;98745.53;8347629;28;20342;-67
2022/03/09 09:29:01;;;;;;;10.83;9.20;;;;;;;13.34;24.56;98735.53;8347185;28;20538;-66
2022/03/09 09:33:04;;;;;;;13.83;10.30;;;;;;;13.57;24.01;98739.72;8347119;28;20242;-67
2022/03/09 09:37:07;;;;;;;19.30;10.93;;;;;;;11.69;26.77;98731.63;8347065;28;20246;-67
2022/03/09 09:41:15;;;;;;;15.83;10.40;;;;;;;13.87;24.92;98716.69;8347436;28;20239;-67
2022/03/09 09:45:20;;;;;;;16.10;10.37;;;;;;;13.61;25.46;98720.44;8347122;28;20236;-67
2022/03/09 09:49:25;;;;;;;12.67;10.13;;;;;;;14.05;24.75;98717.56;8347019;28;20428;-66
2022/03/09 09:53:30;;;;;;;16.50;11.07;;;;;;;15.00;23.13;98722.59;8346451;28;20240;-67
2022/03/09 09:57:33;;;;;;;19.70;11.37;;;;;;;13.59;25.15;98711.88;8348621;28;20228;-67
2022/03/09 10:01:41;;;;;;;16.43;10.43;;;;;;;15.02;23.77;98703.34;8352644;28;20236;-67
2022/03/09 10:05:44;;;;;;;15.00;11.27;;;;;;;13.03;25.67;98698.66;8352648;28;20542;-67
2022/03/09 10:09:48;;;;;;;15.00;10.87;;;;;;;14.05;24.07;98701.94;8352551;28;20566;-67
2022/03/09 10:13:51;;;;;;;19.63;10.70;;;;;;;14.33;23.39;98693.69;8352457;28;20254;-67
2022/03/09 10:18:12;;;;;;;13.23;9.70;;;;;;;15.31;25.63;98694.97;8350324;28;20228;-63
2022/03/09 10:22:27;;;;;;;15.83;11.33;;;;;;;13.83;23.62;98704.72;8351898;28;20244;-64
2022/03/09 10:26:50;;;;;;;17.03;10.97;;;;;;;14.35;23.67;98697.06;8351573;28;20224;-60
2022/03/09 10:30:53;;;;;;;15.20;10.60;;;;;;;15.46;22.07;98701.97;8351794;28;20242;-60
2022/03/09 10:34:58;;;;;;;17.07;10.10;;;;;;;15.79;21.80;98703.75;8351543;28;20447;-60
2022/03/09 10:39:11;;;;;;;15.20;10.07;;;;;;;13.75;23.01;98701.63;8351033;28;20232;-60
2022/03/09 10:43:16;;;;;;;17.50;10.23;;;;;;;15.51;21.47;98706.94;8351503;28;20274;-59
2022/03/09 10:47:30;;;;;;;15.33;9.87;;;;;;;14.56;22.31;98691.72;8351715;28;20498;-60
2022/03/09 10:51:35;;;;;;;15.80;9.80;;;;;;;14.59;22.81;98702.03;8350853;28;20234;-60
2022/03/09 10:55:38;;;;;;;14.47;9.87;;;;;;;14.46;22.00;98697.38;8351135;28;20281;-60
2022/03/09 10:59:46;;;;;;;21.17;9.60;;;;;;;15.00;22.03;98694.75;8351219;28;20232;-60
2022/03/09 11:03:50;;;;;;;13.27;9.50;;;;;;;15.93;20.63;98692.53;8350744;28;20236;-60
2022/03/09 11:07:55;;;;;;;14.87;9.27;;;;;;;14.35;21.29;98691.00;8350151;28;20259;-59
2022/03/09 11:11:58;;;;;;;15.27;9.17;;;;;;;13.78;21.23;98680.66;8350568;28;20232;-60
2022/03/09 11:16:01;;;;;;;12.50;8.50;;;;;;;14.41;20.34;98685.50;8350398;28;20330;-60
2022/03/09 11:20:06;;;;;;;15.80;8.57;;;;;;;15.18;19.90;98684.31;8350534;28;20235;-60
2022/03/09 11:24:12;;;;;;;11.13;8.33;;;;;;;15.24;19.06;98673.53;8349867;28;20236;-60
2022/03/09 11:28:22;;;;;;;13.63;8.50;;;;;;;16.02;18.92;98674.59;8349884;28;20232;-60
2022/03/09 11:32:35;;;;;;;15.40;8.70;;;;;;;14.90;18.23;98680.47;8349533;28;20240;-60
2022/03/09 11:36:39;;;;;;;11.17;8.23;;;;;;;15.72;18.31;98658.78;8349259;28;20252;-60
2022/03/09 11:41:17;;;;;;;10.13;7.33;;;;;;;15.08;17.90;98663.06;8349442;28;20538;-60
2022/03/09 11:45:38;;;;;;;11.87;7.60;;;;;;;15.25;18.24;98668.25;8349103;28;20282;-60
2022/03/09 11:50:06;;;;;;;8.97;6.80;;;;;;;15.74;18.50;98654.34;8349038;28;20231;-60
2022/03/09 11:54:10;;;;;;;13.17;7.57;;;;;;;15.44;17.63;98649.03;8349030;28;20594;-59
2022/03/09 11:58:17;;;;;;;10.90;7.40;;;;;;;15.37;17.93;98652.88;8349063;28;20232;-58
2022/03/09 12:02:21;;;;;;;8.20;6.70;;;;;;;15.81;17.06;98634.81;8348750;28;20236;-58
2022/03/09 12:06:42;;;;;;;8.33;6.77;;;;;;;15.63;16.97;98634.03;8348569;28;20240;-58
2022/03/09 12:10:49;;;;;;;8.00;6.30;;;;;;;15.17;16.96;98628.69;8348324;28;20230;-59
2022/03/09 12:15:02;;;;;;;9.20;6.80;;;;;;;15.14;17.38;98630.59;8348298;28;20294;-59
2022/03/09 12:19:09;;;;;;;9.87;7.33;;;;;;;15.78;17.35;98626.31;8347308;28;20543;-59
2022/03/09 12:23:15;;;;;;;7.03;6.13;;;;;;;16.08;17.11;98625.53;8347781;28;20512;-59
2022/03/09 12:27:26;;;;;;;10.10;7.43;;;;;;;16.10;16.57;98619.28;8348031;28;20242;-59
2022/03/09 12:31:32;;;;;;;11.17;7.10;;;;;;;16.60;16.70;98614.69;8348389;28;20549;-59
2022/03/09 12:35:35;;;;;;;10.97;7.43;;;;;;;16.84;16.05;98622.06;8347565;28;20347;-59
2022/03/09 12:39:38;;;;;;;9.23;6.87;;;;;;;16.79;16.59;98614.44;8347432;28;20236;-59
2022/03/09 12:43:46;;;;;;;9.13;7.23;;;;;;;16.31;16.51;98608.56;8347591;28;20243;-59
2022/03/09 12:47:54;;;;;;;8.40;7.30;;;;;;;16.02;16.97;98603.22;8347498;28;20232;-59
2022/03/09 12:51:59;;;;;;;13.73;7.20;;;;;;;16.61;16.25;98598.91;8347925;28;20270;-59
2022/03/09 12:56:13;;;;;;;10.23;7.10;;;;;;;16.82;17.13;98593.38;8347326;28;20516;-59
2022/03/09 13:00:36;;;;;;;9.30;7.37;;;;;;;16.80;16.41;98588.22;8346631;28;20538;-59
2022/03/09 13:04:41;;;;;;;8.63;7.10;;;;;;;17.03;16.75;98585.19;8347811;28;20236;-59
2022/03/09 13:08:44;;;;;;;9.40;6.93;;;;;;;15.87;16.73;98584.03;8347310;28;20228;-59
2022/03/09 13:12:50;;;;;;;10.20;7.80;;;;;;;16.80;16.52;98575.13;8347300;28;20243;-59
2022/03/09 13:17:02;;;;;;;9.37;7.30;;;;;;;16.71;17.08;98580.06;8347378;28;20243;-59
2022/03/09 13:21:07;;;;;;;10.43;7.40;;;;;;;16.89;16.74;98575.56;8347289;28;20561;-59
2022/03/09 13:25:19;;;;;;;9.10;7.37;;;;;;;16.97;17.72;98582.00;8347077;28;20251;-59
2022/03/09 13:29:24;;;;;;;11.23;7.90;;;;;;;17.35;16.60;98578.78;8346976;28;20236;-59
2022/03/09 13:33:27;;;;;;;7.50;6.80;;;;;;;17.62;16.98;98578.00;8352835;28;20235;-59
2022/03/09 13:37:39;;;;;;;11.40;8.07;;;;;;;17.91;16.73;98572.69;8353012;28;20263;-60
2022/03/09 13:41:43;;;;;;;10.73;7.63;;;;;;;16.90;16.60;98572.00;8353180;28;20231;-59
2022/03/09 13:45:46;;;;;;;10.80;7.37;;;;;;;17.73;16.90;98569.47;8352750;28;20236;-59
2022/03/09 13:49:52;;;;;;;8.37;7.37;;;;;;;17.81;16.12;98572.41;8352943;28;20557;-59
2022/03/09 13:54:02;;;;;;;8.30;7.10;;;;;;;17.68;16.10;98558.44;8352823;28;20414;-59
2022/03/09 13:58:08;;;;;;;7.83;6.50;;;;;;;17.74;16.22;98566.75;8353048;28;20228;-59
2022/03/09 14:02:19;;;;;;;9.53;7.57;;;;;;;18.14;17.11;98568.56;8352493;28;20239;-59
2022/03/09 14:06:23;;;;;;;15.03;8.83;;;;;;;17.93;17.45;98557.72;8352400;28;20239;-59
2022/03/09 14:10:31;;;;;;;13.73;8.73;;;;;;;18.11;17.99;98558.31;8351700;28;20441;-59
2022/03/09 14:14:39;;;;;;;9.67;8.53;;;;;;;18.20;17.98;98562.09;8350221;28;20295;-60
2022/03/09 14:18:42;;;;;;;10.30;8.77;;;;;;;18.14;17.47;98561.56;8349619;28;20231;-59
2022/03/09 14:22:47;;;;;;;10.37;9.10;;;;;;;18.15;17.91;98565.03;8350081;28;20232;-59
2022/03/09 14:26:53;;;;;;;11.70;8.23;;;;;;;18.27;17.48;98566.81;8348257;28;20228;-59
2022/03/09 14:30:56;;;;;;;11.20;8.53;;;;;;;18.46;17.21;98560.34;8349423;28;20581;-60
2022/03/09 14:34:59;;;;;;;11.13;8.57;;;;;;;18.29;17.37;98554.44;8349435;28;20235;-60
2022/03/09 14:39:03;;;;;;;8.77;7.43;;;;;;;18.29;17.54;98551.00;8349832;28;20231;-60
2022/03/09 14:43:08;;;;;;;9.73;8.60;;;;;;;17.94;17.86;98549.75;8348817;28;20523;-60
2022/03/09 14:47:11;;;;;;;11.60;8.80;;;;;;;17.90;17.45;98544.84;8347669;28;20228;-60
2022/03/09 14:51:14;;;;;;;10.37;8.40;;;;;;;18.21;17.77;98538.41;8349674;28;20234;-60
2022/03/09 14:55:17;;;;;;;8.97;8.00;;;;;;;17.37;17.00;98545.50;8349142;28;20243;-60
2022/03/09 14:59:23;;;;;;;13.40;8.37;;;;;;;17.93;17.13;98539.38;8348853;28;20420;-59
2022/03/09 15:03:26;;;;;;;11.00;8.47;;;;;;;17.56;17.66;98539.13;8349413;28;20235;-59
2022/03/09 15:07:29;;;;;;;9.43;7.97;;;;;;;17.24;16.90;98544.59;8349098;28;20227;-59
2022/03/09 15:11:32;;;;;;;13.10;8.10;;;;;;;17.53;17.80;98534.88;8345259;28;20220;-60
2022/03/09 15:15:37;;;;;;;11.77;8.00;;;;;;;17.64;17.85;98541.25;8346704;28;20228;-59
2022/03/09 15:19:40;;;;;;;10.43;7.37;;;;;;;17.14;17.57;98544.34;8347212;28;20232;-59
2022/03/09 15:23:45;;;;;;;10.47;7.63;;;;;;;17.23;18.21;98545.53;8348424;28;20239;-60
2022/03/09 15:27:48;;;;;;;8.13;7.23;;;;;;;17.39;18.23;98546.25;8348450;28;20233;-60
2022/03/09 15:31:54;;;;;;;8.03;7.23;;;;;;;17.30;17.83;98546.81;8348984;28;20347;-59
2022/03/09 15:35:57;;;;;;;9.80;7.77;;;;;;;16.99;17.82;98545.28;8348525;28;20239;-60
2022/03/09 15:40:00;;;;;;;11.63;8.10;;;;;;;16.71;18.15;98546.06;8343823;28;20237;-66
2022/03/09 15:44:03;;;;;;;12.83;8.10;;;;;;;16.74;18.33;98551.97;8343390;28;20231;-65
2022/03/09 15:48:10;;;;;;;9.10;8.20;;;;;;;16.54;18.57;98547.09;8347528;28;20238;-71
2022/03/09 15:52:13;;;;;;;10.20;7.30;;;;;;;16.46;18.97;98544.94;8347660;28;20224;-65
2022/03/09 15:56:16;;;;;;;9.10;7.53;;;;;;;16.45;19.24;98552.84;8346545;28;20563;-65
2022/03/09 16:00:20;;;;;;;12.23;8.30;;;;;;;16.32;19.53;98542.31;8347563;28;20239;-65
2022/03/09 16:04:25;;;;;;;14.70;7.80;;;;;;;16.09;19.52;98547.09;8347263;28;20244;-65
2022/03/09 16:08:28;;;;;;;9.37;7.50;;;;;;;16.10;19.77;98535.69;8341144;28;20235;-65
2022/03/09 16:12:31;;;;;;;10.97;7.63;;;;;;;15.89;20.09;98540.38;8333880;28;20293;-68
2022/03/09 16:16:35;;;;;;;11.37;8.07;;;;;;;15.66;20.80;98536.44;8342340;28;20240;-65
2022/03/09 16:20:41;;;;;;;13.50;8.40;;;;;;;15.62;21.25;98529.69;8315625;28;20540;-64
2022/03/09 16:24:47;;;;;;;10.83;7.77;;;;;;;15.46;21.42;98534.94;8332348;28;20246;-64
2022/03/09 16:28:50;;;;;;;8.20;6.87;;;;;;;15.30;21.37;98537.53;8328071;28;20422;-66
2022/03/09 16:32:53;;;;;;;9.57;7.77;;;;;;;15.16;21.50;98537.44;8341353;28;20228;-65
2022/03/09 16:36:58;;;;;;;26.87;7.93;;;;;;;14.93;21.61;98538.69;8343811;28;20235;-66
2022/03/09 16:41:03;;;;;;;14.57;7.57;;;;;;;14.78;21.30;98542.94;8326692;28;20233;-65
2022/03/09 16:45:15;;;;;;;7.53;6.73;;;;;;;14.80;22.38;98538.47;8321941;28;20221;-67
2022/03/09 16:49:20;;;;;;;12.20;7.43;;;;;;;14.70;22.32;98542.47;8322995;28;20246;-66
2022/03/09 16:53:24;;;;;;;16.17;8.47;;;;;;;14.54;22.71;98542.41;8347594;28;20235;-65
2022/03/09 16:57:29;;;;;;;14.03;10.43;;;;;;;14.42;22.99;98544.72;8347020;28;20416;-65
2022/03/09 17:01:32;;;;;;;12.80;11.50;;;;;;;14.35;23.08;98555.53;8340332;28;20221;-66
2022/03/09 17:05:36;;;;;;;15.50;10.03;;;;;;;14.23;24.12;98555.22;8315995;28;20236;-66
2022/03/09 17:09:41;;;;;;;12.27;9.00;;;;;;;14.04;24.70;98559.66;8321395;28;20258;-66
2022/03/09 17:13:44;;;;;;;12.67;9.93;;;;;;;13.91;24.69;98562.00;8336804;28;20228;-65
2022/03/09 17:17:48;;;;;;;13.80;9.50;;;;;;;13.71;24.88;98557.78;8352951;28;20232;-66
2022/03/09 17:21:51;;;;;;;11.83;10.43;;;;;;;13.64;25.04;98567.63;8349365;28;20562;-65
2022/03/09 17:25:56;;;;;;;13.57;9.43;;;;;;;13.46;25.80;98568.47;8334254;28;20259;-65
2022/03/09 17:29:58;;;;;;;11.37;8.07;;;;;;;13.44;25.76;98571.16;8352898;28;20232;-67
2022/03/09 17:34:01;;;;;;;9.70;7.47;;;;;;;13.35;25.43;98575.94;8352344;28;20239;-65
2022/03/09 17:38:04;;;;;;;12.90;8.07;;;;;;;13.19;26.33;98580.94;8346788;28;20562;-66
2022/03/09 17:42:24;;;;;;;8.93;7.47;;;;;;;13.07;26.79;98582.34;8350643;28;20232;-66
2022/03/09 17:46:27;;;;;;;10.60;8.90;;;;;;;12.85;26.31;98585.03;8348740;28;20236;-65
2022/03/09 17:50:31;;;;;;;10.53;8.23;;;;;;;12.76;26.53;98588.06;8349807;28;20228;-65
2022/03/09 17:54:34;;;;;;;10.87;8.70;;;;;;;12.62;26.87;98594.72;8346726;28;20236;-67
2022/03/09 17:58:38;;;;;;;18.27;13.50;;;;;;;12.52;26.56;98601.19;8349378;28;20231;-66
2022/03/09 18:02:41;;;;;;;21.10;18.67;;;;;;;12.40;27.45;98606.91;8349551;28;20224;-66
2022/03/09 18:06:46;;;;;;;53.60;38.20;;;;;;;12.29;27.31;98607.34;8349677;28;20232;-66
2022/03/09 18:10:50;;;;;;;44.77;34.57;;;;;;;12.19;28.26;98609.47;8351718;28;20247;-66
2022/03/09 18:14:54;;;;;;;30.80;23.33;;;;;;;12.08;28.62;98611.66;8348653;28;20538;-66
2022/03/09 18:18:57;;;;;;;21.97;15.70;;;;;;;12.03;28.28;98609.25;8338963;28;20252;-66
2022/03/09 18:23:00;;;;;;;14.60;12.00;;;;;;;11.85;28.41;98618.56;8319212;28;20232;-66
2022/03/09 18:27:09;;;;;;;12.53;8.10;;;;;;;11.75;28.65;98625.03;8319260;28;20240;-66
2022/03/09 18:31:14;;;;;;;12.60;8.30;;;;;;;11.61;29.69;98627.28;8319244;28;20228;-67
2022/03/09 18:35:17;;;;;;;13.87;9.77;;;;;;;11.57;29.81;98629.16;8324900;28;20236;-67
2022/03/09 18:39:19;;;;;;;17.13;9.93;;;;;;;11.47;30.45;98631.25;8333585;28;20237;-66
2022/03/09 18:43:22;;;;;;;20.23;13.83;;;;;;;11.35;30.73;98639.50;8318832;28;20244;-67
2022/03/09 18:47:29;;;;;;;20.17;16.80;;;;;;;11.31;30.37;98654.31;8332365;28;20423;-66
2022/03/09 18:51:32;;;;;;;21.17;14.83;;;;;;;11.21;30.71;98642.56;8336605;28;20225;-67
2022/03/09 18:55:35;;;;;;;27.60;21.90;;;;;;;11.12;31.02;98651.53;8340045;28;20243;-67
2022/03/09 18:59:38;;;;;;;36.20;28.13;;;;;;;11.05;31.11;98662.19;8350097;28;20231;-67